createdAt,value
2017-08-13T00:00:15.281Z,1003.07
2017-08-13T00:01:15.273Z,1003.05
2017-08-13T00:02:15.485Z,1003.08
2017-08-13T00:03:15.260Z,1003.06
2017-08-13T00:04:15.264Z,1003.05
2017-08-13T00:05:15.235Z,1003.09
2017-08-13T00:06:15.234Z,1003.12
2017-08-13T00:07:15.223Z,1003.18
2017-08-13T00:08:15.661Z,1003.12
2017-08-13T00:09:15.209Z,1003.17
2017-08-13T00:10:15.201Z,1003.16
2017-08-13T00:11:15.199Z,1003.18
2017-08-13T00:12:15.181Z,1003.23
2017-08-13T00:13:15.170Z,1003.20
2017-08-13T00:14:15.465Z,1003.22
2017-08-13T00:15:15.157Z,1003.20
2017-08-13T00:16:15.160Z,1003.21
2017-08-13T00:17:15.151Z,1003.15
2017-08-13T00:18:15.134Z,1003.19
2017-08-13T00:19:15.124Z,1003.19
2017-08-13T00:20:15.151Z,1003.20
2017-08-13T00:21:15.105Z,1003.24
2017-08-13T00:22:15.107Z,1003.23
2017-08-13T00:23:15.116Z,1003.28
2017-08-13T00:24:15.084Z,1003.30
2017-08-13T00:25:15.075Z,1003.29
2017-08-13T00:26:15.066Z,1003.33
2017-08-13T00:27:15.087Z,1003.25
2017-08-13T00:28:15.263Z,1003.23
2017-08-13T00:29:15.040Z,1003.26
2017-08-13T00:30:15.035Z,1003.28
2017-08-13T00:31:15.025Z,1003.28
2017-08-13T00:32:15.021Z,1003.26
2017-08-13T00:33:15.013Z,1003.28
2017-08-13T00:34:15.033Z,1003.24
2017-08-13T00:35:14.994Z,1003.26
2017-08-13T00:36:14.984Z,1003.26
2017-08-13T00:37:14.972Z,1003.26
2017-08-13T00:38:15.403Z,1003.24
2017-08-13T00:39:14.963Z,1003.25
2017-08-13T00:40:14.948Z,1003.26
2017-08-13T00:41:14.941Z,1003.25
2017-08-13T00:42:14.933Z,1003.28
2017-08-13T00:43:14.934Z,1003.27
2017-08-13T00:44:15.356Z,1003.28
2017-08-13T00:45:14.912Z,1003.28
2017-08-13T00:46:14.898Z,1003.32
2017-08-13T00:47:14.890Z,1003.33
2017-08-13T00:48:14.887Z,1003.33
2017-08-13T00:49:14.874Z,1003.35
2017-08-13T00:50:15.310Z,1003.34
2017-08-13T00:51:14.857Z,1003.32
2017-08-13T00:52:14.848Z,1003.34
2017-08-13T00:53:14.843Z,1003.32
2017-08-13T00:54:14.827Z,1003.33
2017-08-13T00:55:14.825Z,1003.32
2017-08-13T00:56:15.211Z,1003.32
2017-08-13T00:57:14.807Z,1003.35
2017-08-13T00:58:14.796Z,1003.38
2017-08-13T00:59:14.788Z,1003.37
2017-08-13T01:00:14.778Z,1003.39
2017-08-13T01:01:14.772Z,1003.37
2017-08-13T01:02:15.106Z,1003.34
2017-08-13T01:03:14.753Z,1003.38
2017-08-13T01:04:14.746Z,1003.39
2017-08-13T01:05:14.736Z,1003.39
2017-08-13T01:06:14.735Z,1003.40
2017-08-13T01:07:14.722Z,1003.41
2017-08-13T01:08:15.066Z,1003.40
2017-08-13T01:09:14.711Z,1003.39
2017-08-13T01:10:14.696Z,1003.39
2017-08-13T01:11:14.689Z,1003.41
2017-08-13T01:12:14.684Z,1003.39
2017-08-13T01:13:14.686Z,1003.42
2017-08-13T01:14:14.978Z,1003.41
2017-08-13T01:15:14.650Z,1003.45
2017-08-13T01:16:14.646Z,1003.46
2017-08-13T01:17:14.635Z,1003.47
2017-08-13T01:18:14.640Z,1003.50
2017-08-13T01:19:14.621Z,1003.49
2017-08-13T01:20:14.646Z,1003.53
2017-08-13T01:21:14.604Z,1003.53
2017-08-13T01:22:14.601Z,1003.51
2017-08-13T01:23:14.590Z,1003.54
2017-08-13T01:24:14.948Z,1003.53
2017-08-13T01:25:14.574Z,1003.55
2017-08-13T01:26:14.562Z,1003.51
2017-08-13T01:27:14.552Z,1003.53
2017-08-13T01:28:14.544Z,1003.53
2017-08-13T01:29:14.540Z,1003.55
2017-08-13T01:30:14.979Z,1003.59
2017-08-13T01:31:14.517Z,1003.62
2017-08-13T01:32:14.510Z,1003.65
2017-08-13T01:33:14.497Z,1003.65
2017-08-13T01:34:14.493Z,1003.72
2017-08-13T01:35:14.499Z,1003.68
2017-08-13T01:36:14.508Z,1003.70
2017-08-13T01:37:14.477Z,1003.68
2017-08-13T01:38:14.460Z,1003.69
2017-08-13T01:39:14.495Z,1003.68
2017-08-13T01:40:14.437Z,1003.66
2017-08-13T01:41:14.434Z,1003.65
2017-08-13T01:42:14.424Z,1003.68
2017-08-13T01:43:14.415Z,1003.66
2017-08-13T01:44:14.710Z,1003.69
2017-08-13T01:45:14.400Z,1003.71
2017-08-13T01:46:14.393Z,1003.74
2017-08-13T01:47:14.383Z,1003.72
2017-08-13T01:48:14.376Z,1003.72
2017-08-13T01:49:14.363Z,1003.71
2017-08-13T01:50:14.716Z,1003.70
2017-08-13T01:51:14.361Z,1003.71
2017-08-13T01:52:14.334Z,1003.75
2017-08-13T01:53:14.342Z,1003.73
2017-08-13T01:54:14.320Z,1003.72
2017-08-13T01:55:14.333Z,1003.73
2017-08-13T01:56:14.669Z,1003.75
2017-08-13T01:57:14.293Z,1003.75
2017-08-13T01:58:14.286Z,1003.70
2017-08-13T01:59:14.276Z,1003.78
2017-08-13T02:00:14.275Z,1003.79
2017-08-13T02:01:14.268Z,1003.80
2017-08-13T02:02:14.472Z,1003.80
2017-08-13T02:03:14.243Z,1003.81
2017-08-13T02:04:14.233Z,1003.79
2017-08-13T02:05:14.226Z,1003.79
2017-08-13T02:06:14.213Z,1003.84
2017-08-13T02:07:14.213Z,1003.79
2017-08-13T02:08:14.492Z,1003.81
2017-08-13T02:09:14.191Z,1003.83
2017-08-13T02:10:14.179Z,1003.79
2017-08-13T02:11:14.172Z,1003.77
2017-08-13T02:12:14.165Z,1003.79
2017-08-13T02:13:14.153Z,1003.81
2017-08-13T02:14:14.592Z,1003.79
2017-08-13T02:15:14.139Z,1003.75
2017-08-13T02:16:14.129Z,1003.71
2017-08-13T02:17:14.123Z,1003.74
2017-08-13T02:18:14.109Z,1003.75
2017-08-13T02:19:14.108Z,1003.75
2017-08-13T02:20:14.498Z,1003.80
2017-08-13T02:21:14.079Z,1003.86
2017-08-13T02:22:14.076Z,1003.85
2017-08-13T02:23:14.060Z,1003.86
2017-08-13T02:24:14.068Z,1003.84
2017-08-13T02:25:14.045Z,1003.81
2017-08-13T02:26:14.399Z,1003.85
2017-08-13T02:27:14.036Z,1003.85
2017-08-13T02:28:14.026Z,1003.88
2017-08-13T02:29:14.009Z,1003.84
2017-08-13T02:30:14.004Z,1003.83
2017-08-13T02:31:13.991Z,1003.83
2017-08-13T02:32:14.362Z,1003.88
2017-08-13T02:33:13.989Z,1003.90
2017-08-13T02:34:13.970Z,1003.90
2017-08-13T02:35:13.968Z,1003.89
2017-08-13T02:36:13.949Z,1003.88
2017-08-13T02:37:13.947Z,1003.85
2017-08-13T02:38:14.292Z,1003.90
2017-08-13T02:39:13.919Z,1003.91
2017-08-13T02:40:13.929Z,1003.88
2017-08-13T02:41:13.908Z,1003.95
2017-08-13T02:42:13.898Z,1003.94
2017-08-13T02:43:13.884Z,1003.94
2017-08-13T02:44:14.259Z,1003.94
2017-08-13T02:45:13.865Z,1003.92
2017-08-13T02:46:13.856Z,1003.90
2017-08-13T02:47:13.849Z,1003.90
2017-08-13T02:48:13.839Z,1003.94
2017-08-13T02:49:13.832Z,1003.88
2017-08-13T02:50:13.845Z,1003.88
2017-08-13T02:51:13.818Z,1003.88
2017-08-13T02:52:13.805Z,1003.91
2017-08-13T02:53:13.801Z,1003.93
2017-08-13T02:54:13.787Z,1003.95
2017-08-13T02:55:13.990Z,1003.94
2017-08-13T02:56:13.768Z,1003.98
2017-08-13T02:57:13.760Z,1003.95
2017-08-13T02:58:13.749Z,1003.99
2017-08-13T02:59:13.743Z,1003.99
2017-08-13T03:00:13.732Z,1003.96
2017-08-13T03:01:13.751Z,1003.96
2017-08-13T03:02:13.713Z,1003.96
2017-08-13T03:03:13.712Z,1003.95
2017-08-13T03:04:13.701Z,1003.92
2017-08-13T03:05:13.698Z,1003.94
2017-08-13T03:06:14.033Z,1003.91
2017-08-13T03:07:13.678Z,1003.93
2017-08-13T03:08:13.666Z,1003.93
2017-08-13T03:09:13.654Z,1003.94
2017-08-13T03:10:13.641Z,1003.95
2017-08-13T03:11:13.632Z,1003.97
2017-08-13T03:12:13.913Z,1003.94
2017-08-13T03:13:13.613Z,1003.96
2017-08-13T03:14:13.599Z,1003.95
2017-08-13T03:15:13.597Z,1004.02
2017-08-13T03:16:13.600Z,1003.99
2017-08-13T03:17:13.582Z,1003.99
2017-08-13T03:18:13.594Z,1003.97
2017-08-13T03:19:13.559Z,1003.96
2017-08-13T03:20:13.549Z,1003.98
2017-08-13T03:21:13.540Z,1003.97
2017-08-13T03:22:13.527Z,1004.01
2017-08-13T03:23:13.893Z,1003.96
2017-08-13T03:24:13.510Z,1003.98
2017-08-13T03:25:13.505Z,1003.97
2017-08-13T03:26:13.494Z,1003.94
2017-08-13T03:27:13.493Z,1003.89
2017-08-13T03:28:13.472Z,1003.93
2017-08-13T03:29:13.767Z,1003.97
2017-08-13T03:30:13.460Z,1003.94
2017-08-13T03:31:13.451Z,1003.93
2017-08-13T03:32:13.442Z,1003.94
2017-08-13T03:33:13.425Z,1003.96
2017-08-13T03:34:13.421Z,1003.95
2017-08-13T03:35:13.771Z,1003.99
2017-08-13T03:36:13.407Z,1003.95
2017-08-13T03:37:13.392Z,1003.97
2017-08-13T03:38:13.392Z,1004.01
2017-08-13T03:39:13.370Z,1003.97
2017-08-13T03:40:13.367Z,1003.95
2017-08-13T03:41:13.804Z,1003.93
2017-08-13T03:42:13.343Z,1003.96
2017-08-13T03:43:13.334Z,1003.96
2017-08-13T03:44:13.328Z,1003.97
2017-08-13T03:45:13.321Z,1004.01
2017-08-13T03:46:13.310Z,1003.97
2017-08-13T03:47:13.325Z,1004.02
2017-08-13T03:48:13.587Z,1004.06
2017-08-13T03:49:13.274Z,1004.05
2017-08-13T03:50:13.272Z,1004.05
2017-08-13T03:51:13.257Z,1004.08
2017-08-13T03:52:13.252Z,1004.09
2017-08-13T03:53:13.241Z,1004.10
2017-08-13T03:54:13.570Z,1004.06
2017-08-13T03:55:13.231Z,1004.05
2017-08-13T03:56:13.212Z,1004.08
2017-08-13T03:57:13.219Z,1004.08
2017-08-13T03:58:13.191Z,1004.11
2017-08-13T03:59:13.193Z,1004.15
2017-08-13T04:00:13.386Z,1004.14
2017-08-13T04:01:13.165Z,1004.17
2017-08-13T04:02:13.156Z,1004.20
2017-08-13T04:03:13.157Z,1004.19
2017-08-13T04:04:13.133Z,1004.17
2017-08-13T04:05:13.130Z,1004.17
2017-08-13T04:06:13.486Z,1004.16
2017-08-13T04:07:13.111Z,1004.14
2017-08-13T04:08:13.098Z,1004.17
2017-08-13T04:09:13.093Z,1004.17
2017-08-13T04:10:13.082Z,1004.20
2017-08-13T04:11:13.072Z,1004.19
2017-08-13T04:12:13.420Z,1004.25
2017-08-13T04:13:13.056Z,1004.25
2017-08-13T04:14:13.040Z,1004.28
2017-08-13T04:15:13.034Z,1004.26
2017-08-13T04:16:13.026Z,1004.20
2017-08-13T04:17:13.014Z,1004.23
2017-08-13T04:18:13.032Z,1004.24
2017-08-13T04:19:13.009Z,1004.22
2017-08-13T04:20:12.992Z,1004.22
2017-08-13T04:21:12.985Z,1004.23
2017-08-13T04:22:13.413Z,1004.26
2017-08-13T04:23:12.959Z,1004.22
2017-08-13T04:24:12.947Z,1004.26
2017-08-13T04:25:12.938Z,1004.24
2017-08-13T04:26:12.927Z,1004.24
2017-08-13T04:27:12.922Z,1004.17
2017-08-13T04:28:12.939Z,1004.21
2017-08-13T04:29:12.903Z,1004.20
2017-08-13T04:30:12.896Z,1004.20
2017-08-13T04:31:12.883Z,1004.22
2017-08-13T04:32:13.231Z,1004.21
2017-08-13T04:33:12.863Z,1004.22
2017-08-13T04:34:12.853Z,1004.21
2017-08-13T04:35:12.840Z,1004.24
2017-08-13T04:36:12.840Z,1004.26
2017-08-13T04:37:12.820Z,1004.29
2017-08-13T04:38:13.225Z,1004.28
2017-08-13T04:39:12.804Z,1004.33
2017-08-13T04:40:12.797Z,1004.32
2017-08-13T04:41:12.786Z,1004.28
2017-08-13T04:42:12.791Z,1004.27
2017-08-13T04:43:12.765Z,1004.31
2017-08-13T04:44:13.052Z,1004.34
2017-08-13T04:45:12.751Z,1004.35
2017-08-13T04:46:12.752Z,1004.38
2017-08-13T04:47:12.725Z,1004.38
2017-08-13T04:48:12.724Z,1004.40
2017-08-13T04:49:12.708Z,1004.40
2017-08-13T04:50:13.000Z,1004.39
2017-08-13T04:51:12.688Z,1004.44
2017-08-13T04:52:12.683Z,1004.49
2017-08-13T04:53:12.672Z,1004.46
2017-08-13T04:54:12.665Z,1004.48
2017-08-13T04:55:12.648Z,1004.48
2017-08-13T04:56:13.003Z,1004.50
2017-08-13T04:57:12.627Z,1004.50
2017-08-13T04:58:12.625Z,1004.54
2017-08-13T04:59:12.621Z,1004.54
2017-08-13T05:00:12.611Z,1004.57
2017-08-13T05:01:12.597Z,1004.54
2017-08-13T05:02:12.613Z,1004.61
2017-08-13T05:03:12.572Z,1004.65
2017-08-13T05:04:12.572Z,1004.67
2017-08-13T05:05:12.764Z,1004.69
2017-08-13T05:06:12.548Z,1004.69
2017-08-13T05:07:12.536Z,1004.70
2017-08-13T05:08:12.529Z,1004.73
2017-08-13T05:09:12.522Z,1004.73
2017-08-13T05:10:12.505Z,1004.72
2017-08-13T05:11:12.910Z,1004.72
2017-08-13T05:12:12.488Z,1004.71
2017-08-13T05:13:12.477Z,1004.71
2017-08-13T05:14:12.467Z,1004.75
2017-08-13T05:15:12.466Z,1004.73
2017-08-13T05:16:12.447Z,1004.74
2017-08-13T05:17:12.470Z,1004.73
2017-08-13T05:18:12.432Z,1004.71
2017-08-13T05:19:12.419Z,1004.73
2017-08-13T05:20:12.411Z,1004.73
2017-08-13T05:21:12.609Z,1004.74
2017-08-13T05:22:12.391Z,1004.75
2017-08-13T05:23:12.388Z,1004.74
2017-08-13T05:24:12.392Z,1004.76
2017-08-13T05:25:12.368Z,1004.77
2017-08-13T05:26:12.353Z,1004.80
2017-08-13T05:27:12.387Z,1004.82
2017-08-13T05:28:12.337Z,1004.87
2017-08-13T05:29:12.327Z,1004.85
2017-08-13T05:30:12.316Z,1004.88
2017-08-13T05:31:33.628Z,1004.85
2017-08-13T05:32:12.295Z,1004.87
2017-08-13T05:33:12.291Z,1004.94
2017-08-13T05:34:12.281Z,1004.90
2017-08-13T05:35:12.274Z,1004.95
2017-08-13T05:36:12.257Z,1004.92
2017-08-13T05:37:12.599Z,1004.96
2017-08-13T05:38:12.246Z,1004.94
2017-08-13T05:39:12.235Z,1004.96
2017-08-13T05:40:12.222Z,1004.95
2017-08-13T05:41:12.216Z,1004.97
2017-08-13T05:42:12.202Z,1004.96
2017-08-13T05:43:12.519Z,1004.99
2017-08-13T05:44:12.191Z,1004.99
2017-08-13T05:45:12.175Z,1004.97
2017-08-13T05:46:12.165Z,1005.02
2017-08-13T05:47:12.155Z,1004.97
2017-08-13T05:48:12.147Z,1005.00
2017-08-13T05:49:12.446Z,1005.03
2017-08-13T05:50:12.129Z,1004.99
2017-08-13T05:51:12.118Z,1005.03
2017-08-13T05:52:12.112Z,1005.03
2017-08-13T05:53:12.096Z,1005.02
2017-08-13T05:54:12.098Z,1005.04
2017-08-13T05:55:12.525Z,1005.08
2017-08-13T05:56:12.070Z,1005.06
2017-08-13T05:57:12.064Z,1005.09
2017-08-13T05:58:12.054Z,1005.10
2017-08-13T05:59:12.050Z,1005.13
2017-08-13T06:00:12.037Z,1005.11
2017-08-13T06:01:12.458Z,1005.15
2017-08-13T06:02:12.029Z,1005.19
2017-08-13T06:03:12.005Z,1005.19
2017-08-13T06:04:11.999Z,1005.16
2017-08-13T06:05:12.001Z,1005.20
2017-08-13T06:06:11.980Z,1005.22
2017-08-13T06:07:12.007Z,1005.21
2017-08-13T06:08:11.966Z,1005.21
2017-08-13T06:09:11.948Z,1005.21
2017-08-13T06:10:11.951Z,1005.24
2017-08-13T06:11:11.945Z,1005.25
2017-08-13T06:12:11.956Z,1005.26
2017-08-13T06:13:11.929Z,1005.28
2017-08-13T06:14:11.910Z,1005.28
2017-08-13T06:15:11.896Z,1005.28
2017-08-13T06:16:11.889Z,1005.30
2017-08-13T06:17:12.194Z,1005.27
2017-08-13T06:18:11.871Z,1005.30
2017-08-13T06:19:11.867Z,1005.31
2017-08-13T06:20:11.860Z,1005.32
2017-08-13T06:21:11.841Z,1005.29
2017-08-13T06:22:11.830Z,1005.33
2017-08-13T06:23:12.271Z,1005.32
2017-08-13T06:24:11.815Z,1005.27
2017-08-13T06:25:11.813Z,1005.31
2017-08-13T06:26:11.807Z,1005.35
2017-08-13T06:27:11.792Z,1005.31
2017-08-13T06:28:11.804Z,1005.33
2017-08-13T06:29:12.180Z,1005.35
2017-08-13T06:30:11.761Z,1005.38
2017-08-13T06:31:11.752Z,1005.40
2017-08-13T06:32:11.741Z,1005.41
2017-08-13T06:33:11.735Z,1005.45
2017-08-13T06:34:11.718Z,1005.44
2017-08-13T06:35:12.049Z,1005.50
2017-08-13T06:36:11.701Z,1005.48
2017-08-13T06:37:11.695Z,1005.55
2017-08-13T06:38:11.694Z,1005.54
2017-08-13T06:39:11.695Z,1005.56
2017-08-13T06:40:11.672Z,1005.59
2017-08-13T06:41:12.034Z,1005.58
2017-08-13T06:42:11.655Z,1005.58
2017-08-13T06:43:11.649Z,1005.58
2017-08-13T06:44:11.639Z,1005.60
2017-08-13T06:45:11.631Z,1005.61
2017-08-13T06:46:11.613Z,1005.59
2017-08-13T06:47:12.066Z,1005.64
2017-08-13T06:48:11.599Z,1005.63
2017-08-13T06:49:11.592Z,1005.66
2017-08-13T06:50:11.578Z,1005.68
2017-08-13T06:51:11.575Z,1005.69
2017-08-13T06:52:11.564Z,1005.70
2017-08-13T06:53:12.000Z,1005.71
2017-08-13T06:54:11.546Z,1005.74
2017-08-13T06:55:11.534Z,1005.75
2017-08-13T06:56:11.531Z,1005.74
2017-08-13T06:57:11.516Z,1005.76
2017-08-13T06:58:11.514Z,1005.76
2017-08-13T06:59:11.794Z,1005.73
2017-08-13T07:00:11.497Z,1005.77
2017-08-13T07:01:11.482Z,1005.76
2017-08-13T07:02:11.481Z,1005.79
2017-08-13T07:03:11.461Z,1005.81
2017-08-13T07:04:11.460Z,1005.80
2017-08-13T07:05:11.739Z,1005.83
2017-08-13T07:06:11.440Z,1005.87
2017-08-13T07:07:11.428Z,1005.89
2017-08-13T07:08:11.422Z,1005.90
2017-08-13T07:09:11.415Z,1005.92
2017-08-13T07:10:11.403Z,1005.92
2017-08-13T07:11:11.760Z,1005.93
2017-08-13T07:12:11.386Z,1005.92
2017-08-13T07:13:11.379Z,1005.91
2017-08-13T07:14:11.376Z,1005.95
2017-08-13T07:15:11.371Z,1005.96
2017-08-13T07:16:11.351Z,1005.98
2017-08-13T07:17:11.791Z,1006.02
2017-08-13T07:18:11.335Z,1006.04
2017-08-13T07:19:11.326Z,1006.05
2017-08-13T07:20:11.315Z,1006.04
2017-08-13T07:21:11.314Z,1006.04
2017-08-13T07:22:11.300Z,1006.05
2017-08-13T07:23:11.317Z,1006.01
2017-08-13T07:24:11.282Z,1006.01
2017-08-13T07:25:11.273Z,1006.03
2017-08-13T07:26:11.272Z,1006.05
2017-08-13T07:27:11.583Z,1006.04
2017-08-13T07:28:11.249Z,1006.10
2017-08-13T07:29:11.242Z,1006.05
2017-08-13T07:30:11.229Z,1006.09
2017-08-13T07:31:11.223Z,1006.15
2017-08-13T07:32:11.213Z,1006.13
2017-08-13T07:33:11.648Z,1006.09
2017-08-13T07:34:11.195Z,1006.12
2017-08-13T07:35:11.187Z,1006.13
2017-08-13T07:36:11.179Z,1006.13
2017-08-13T07:37:11.267Z,1006.15
2017-08-13T07:38:11.165Z,1006.12
2017-08-13T07:39:11.601Z,1006.11
2017-08-13T07:40:11.144Z,1006.13
2017-08-13T07:41:11.136Z,1006.09
2017-08-13T07:42:11.127Z,1006.14
2017-08-13T07:55:18.739Z,1006.28
2017-08-13T07:56:18.372Z,1006.27
2017-08-13T07:57:19.014Z,1006.28
2017-08-13T07:58:19.311Z,1006.27
2017-08-13T07:59:19.104Z,1006.30
2017-08-13T08:00:18.899Z,1006.28
2017-08-13T08:01:19.135Z,1006.27
2017-08-13T08:02:18.350Z,1006.26
2017-08-13T08:03:18.357Z,1006.29
2017-08-13T08:04:18.307Z,1006.30
2017-08-13T08:05:18.243Z,1006.30
2017-08-13T08:06:18.231Z,1006.30
2017-08-13T08:07:18.215Z,1006.28
2017-08-13T08:08:18.666Z,1006.28
2017-08-13T08:09:18.208Z,1006.32
2017-08-13T08:10:18.329Z,1006.36
2017-08-13T08:11:18.181Z,1006.31
2017-08-13T08:12:18.177Z,1006.32
2017-08-13T08:13:18.703Z,1006.32
2017-08-13T08:14:18.164Z,1006.34
2017-08-13T08:15:18.146Z,1006.32
2017-08-13T08:16:18.141Z,1006.34
2017-08-13T08:17:18.139Z,1006.37
2017-08-13T08:18:18.160Z,1006.34
2017-08-13T08:19:18.486Z,1006.35
2017-08-13T08:20:18.110Z,1006.37
2017-08-13T08:21:18.098Z,1006.37
2017-08-13T08:22:18.099Z,1006.40
2017-08-13T08:23:18.086Z,1006.40
2017-08-13T08:24:18.070Z,1006.36
2017-08-13T08:25:18.362Z,1006.29
2017-08-13T08:26:18.061Z,1006.33
2017-08-13T08:27:18.130Z,1006.32
2017-08-13T08:28:18.042Z,1006.38
2017-08-13T08:29:18.081Z,1006.33
2017-08-13T08:30:18.033Z,1006.35
2017-08-13T08:31:18.054Z,1006.35
2017-08-13T08:32:18.016Z,1006.37
2017-08-13T08:33:18.034Z,1006.34
2017-08-13T08:34:17.991Z,1006.34
2017-08-13T08:35:18.026Z,1006.37
2017-08-13T08:36:17.978Z,1006.35
2017-08-13T08:37:17.955Z,1006.37
2017-08-13T08:38:17.996Z,1006.37
2017-08-13T08:39:17.945Z,1006.35
2017-08-13T08:40:17.948Z,1006.36
2017-08-13T08:41:17.932Z,1006.39
2017-08-13T08:42:17.926Z,1006.36
2017-08-13T08:43:18.327Z,1006.43
2017-08-13T08:44:17.907Z,1006.44
2017-08-13T08:45:17.912Z,1006.42
2017-08-13T08:46:17.894Z,1006.46
2017-08-13T08:47:17.885Z,1006.46
2017-08-13T08:48:17.887Z,1006.45
2017-08-13T08:49:17.909Z,1006.47
2017-08-13T08:50:17.863Z,1006.45
2017-08-13T08:51:17.857Z,1006.49
2017-08-13T08:52:17.848Z,1006.53
2017-08-13T08:53:18.277Z,1006.52
2017-08-13T08:54:17.838Z,1006.50
2017-08-13T08:55:17.829Z,1006.51
2017-08-13T08:56:17.823Z,1006.55
2017-08-13T09:00:14.953Z,1006.59
2017-08-13T09:09:38.674Z,1006.51
2017-08-13T09:10:37.836Z,1006.54
2017-08-13T09:11:37.746Z,1006.53
2017-08-13T09:12:37.669Z,1006.49
2017-08-13T09:13:38.398Z,1006.49
2017-08-13T09:14:38.841Z,1006.50
2017-08-13T09:15:37.643Z,1006.49
2017-08-13T09:16:37.626Z,1006.48
2017-08-13T09:17:37.612Z,1006.48
2017-08-13T09:18:37.604Z,1006.54
2017-08-13T09:19:37.594Z,1006.53
2017-08-13T09:20:37.620Z,1006.59
2017-08-13T09:21:37.588Z,1006.57
2017-08-13T09:22:37.577Z,1006.57
2017-08-13T09:23:37.574Z,1006.60
2017-08-13T09:24:37.572Z,1006.60
2017-08-13T09:25:37.895Z,1006.64
2017-08-13T09:26:37.547Z,1006.69
2017-08-13T09:27:37.542Z,1006.67
2017-08-13T09:28:37.532Z,1006.69
2017-08-13T09:29:37.533Z,1006.68
2017-08-13T09:30:37.522Z,1006.67
2017-08-13T09:34:13.935Z,1006.71
2017-08-13T09:35:00.030Z,1006.68
2017-08-13T09:35:59.419Z,1006.69
2017-08-13T09:36:59.183Z,1006.72
2017-08-13T09:37:59.168Z,1006.66
2017-08-13T09:38:59.159Z,1006.69
2017-08-13T09:39:59.165Z,1006.68
2017-08-13T09:40:59.887Z,1006.65
2017-08-13T09:42:01.394Z,1006.69
2017-08-13T09:42:59.155Z,1006.64
2017-08-13T09:43:59.139Z,1006.60
2017-08-13T09:44:59.149Z,1006.60
2017-08-13T09:45:59.128Z,1006.61
2017-08-13T09:46:59.869Z,1006.64
2017-08-13T09:48:00.858Z,1006.63
2017-08-13T09:48:59.115Z,1006.62
2017-08-13T09:51:54.018Z,1006.62
2017-08-13T09:52:53.919Z,1006.62
2017-08-13T09:53:53.845Z,1006.66
2017-08-13T09:54:54.452Z,1006.62
2017-08-13T09:55:54.543Z,1006.66
2017-08-13T09:56:54.128Z,1006.57
2017-08-13T09:57:53.674Z,1006.57
2017-08-13T09:58:53.670Z,1006.61
2017-08-13T09:59:53.657Z,1006.62
2017-08-13T10:00:53.653Z,1006.57
2017-08-13T10:01:53.644Z,1006.58
2017-08-13T10:02:53.866Z,1006.65
2017-08-13T10:03:53.627Z,1006.61
2017-08-13T10:04:53.625Z,1006.61
2017-08-13T10:05:53.617Z,1006.61
2017-08-13T10:06:53.609Z,1006.61
2017-08-13T10:07:53.609Z,1006.61
2017-08-13T10:08:54.033Z,1006.63
2017-08-13T10:09:53.587Z,1006.57
2017-08-13T10:10:53.588Z,1006.57
2017-08-13T10:11:53.577Z,1006.59
2017-08-13T10:12:53.566Z,1006.62
2017-08-13T10:13:53.563Z,1006.58
2017-08-13T10:14:53.971Z,1006.60
2017-08-13T10:15:53.560Z,1006.59
2017-08-13T10:16:56.078Z,1006.59
2017-08-13T10:17:53.804Z,1006.62
2017-08-13T10:18:53.636Z,1006.63
2017-08-13T10:19:53.527Z,1006.60
2017-08-13T10:20:54.001Z,1006.66
2017-08-13T10:22:04.664Z,1006.62
2017-08-13T10:28:16.770Z,1006.70
2017-08-13T10:29:10.637Z,1006.65
2017-08-13T10:30:09.394Z,1006.63
2017-08-13T10:31:22.285Z,1006.66
2017-08-13T10:39:03.233Z,1006.59
2017-08-13T10:40:02.808Z,1006.58
2017-08-13T10:41:04.757Z,1006.60
2017-08-13T10:42:02.639Z,1006.64
2017-08-13T10:43:02.738Z,1006.58
2017-08-13T10:44:01.943Z,1006.61
2017-08-13T10:45:01.966Z,1006.60
2017-08-13T10:46:02.592Z,1006.55
2017-08-13T10:48:46.178Z,1006.60
2017-08-13T10:49:46.060Z,1006.70
2017-08-13T10:50:46.044Z,1006.72
2017-08-13T10:51:46.504Z,1006.73
2017-08-13T10:52:46.024Z,1006.76
2017-08-13T10:53:46.011Z,1006.88
2017-08-13T10:54:46.010Z,1006.87
2017-08-13T10:55:46.006Z,1006.82
2017-08-13T10:56:46.058Z,1006.84
2017-08-13T10:57:46.012Z,1006.86
2017-08-13T10:58:45.980Z,1006.80
2017-08-13T10:59:45.992Z,1006.75
2017-08-13T11:00:45.982Z,1006.78
2017-08-13T11:01:46.432Z,1006.77
2017-08-13T11:02:45.967Z,1006.81
2017-08-13T11:03:45.953Z,1006.87
2017-08-13T11:04:45.964Z,1006.81
2017-08-13T11:05:45.941Z,1006.81
2017-08-13T11:06:45.941Z,1006.78
2017-08-13T11:07:46.428Z,1006.80
2017-08-13T11:08:45.929Z,1006.73
2017-08-13T11:09:45.941Z,1006.76
2017-08-13T11:10:45.909Z,1006.79
2017-08-13T11:11:45.904Z,1006.80
2017-08-13T11:12:45.935Z,1006.74
2017-08-13T11:13:47.287Z,1006.77
2017-08-13T11:14:45.879Z,1006.75
2017-08-13T11:16:06.873Z,1006.71
2017-08-13T11:16:45.869Z,1006.71
2017-08-13T11:17:45.864Z,1006.72
2017-08-13T11:18:45.859Z,1006.72
2017-08-13T11:19:46.178Z,1006.73
2017-08-13T11:20:45.835Z,1006.70
2017-08-13T11:21:45.830Z,1006.72
2017-08-13T11:22:45.818Z,1006.72
2017-08-13T11:23:45.817Z,1006.74
2017-08-13T11:24:45.826Z,1006.71
2017-08-13T11:25:46.288Z,1006.73
2017-08-13T11:26:45.804Z,1006.70
2017-08-13T11:27:45.793Z,1006.70
2017-08-13T11:28:45.786Z,1006.73
2017-08-13T11:29:45.778Z,1006.69
2017-08-13T11:30:45.772Z,1006.67
2017-08-13T11:31:45.796Z,1006.78
2017-08-13T11:32:45.763Z,1006.73
2017-08-13T11:33:46.324Z,1006.72
2017-08-13T11:34:45.749Z,1006.70
2017-08-13T11:35:45.743Z,1006.69
2017-08-13T11:36:46.178Z,1006.76
2017-08-13T11:37:45.738Z,1006.82
2017-08-13T11:38:45.722Z,1006.85
2017-08-13T11:39:45.719Z,1006.96
2017-08-13T11:42:35.131Z,1006.12
2017-08-13T11:46:16.916Z,1006.60
2017-08-13T11:47:16.140Z,1006.60
2017-08-13T11:48:16.170Z,1006.60
2017-08-13T11:49:16.125Z,1006.59
2017-08-13T11:50:16.118Z,1006.56
2017-08-13T11:51:17.434Z,1006.60
2017-08-13T11:52:16.194Z,1006.65
2017-08-13T11:53:16.083Z,1006.62
2017-08-13T11:54:16.082Z,1006.67
2017-08-13T11:55:16.071Z,1006.73
2017-08-13T11:56:16.071Z,1006.68
2017-08-13T11:57:16.383Z,1006.70
2017-08-13T11:58:16.059Z,1006.72
2017-08-13T11:59:16.047Z,1006.71
2017-08-13T12:00:16.049Z,1006.69
2017-08-13T12:01:16.035Z,1006.70
2017-08-13T12:02:16.036Z,1006.68
2017-08-13T12:03:16.265Z,1006.72
2017-08-13T12:04:16.021Z,1006.76
2017-08-13T12:05:16.013Z,1006.74
2017-08-13T12:06:16.006Z,1006.74
2017-08-13T12:07:16.013Z,1006.75
2017-08-13T12:08:16.004Z,1006.81
2017-08-13T12:09:16.025Z,1006.79
2017-08-13T12:10:15.990Z,1006.80
2017-08-13T12:11:15.989Z,1006.82
2017-08-13T12:12:16.024Z,1006.86
2017-08-13T12:13:15.970Z,1006.84
2017-08-13T12:14:15.961Z,1006.89
2017-08-13T12:15:15.962Z,1006.91
2017-08-13T12:16:15.948Z,1006.89
2017-08-13T12:17:16.251Z,1006.90
2017-08-13T12:18:15.932Z,1006.90
2017-08-13T12:19:15.917Z,1006.94
2017-08-13T12:20:15.910Z,1006.99
2017-08-13T12:21:15.906Z,1007.02
2017-08-13T12:22:15.900Z,1007.04
2017-08-13T12:23:15.932Z,1007.00
2017-08-13T12:24:15.886Z,1007.06
2017-08-13T12:25:15.883Z,1007.08
2017-08-13T12:26:15.874Z,1007.10
2017-08-13T12:27:15.900Z,1007.10
2017-08-13T12:28:15.853Z,1007.12
2017-08-13T12:29:15.851Z,1007.13
2017-08-13T12:30:15.850Z,1007.12
2017-08-13T12:31:15.833Z,1007.13
2017-08-13T12:32:16.048Z,1007.16
2017-08-13T12:33:15.815Z,1007.15
2017-08-13T12:34:15.814Z,1007.18
2017-08-13T12:35:15.816Z,1007.17
2017-08-13T12:36:15.798Z,1007.17
2017-08-13T12:37:15.793Z,1007.20
2017-08-13T12:38:15.814Z,1007.21
2017-08-13T12:39:15.776Z,1007.18
2017-08-13T12:40:15.773Z,1007.20
2017-08-13T12:41:15.767Z,1007.23
2017-08-13T12:42:16.242Z,1007.25
2017-08-13T12:43:15.749Z,1007.29
2017-08-13T12:44:15.752Z,1007.27
2017-08-13T12:45:15.742Z,1007.27
2017-08-13T12:46:15.723Z,1007.28
2017-08-13T12:47:15.717Z,1007.27
2017-08-13T12:48:16.335Z,1007.28
2017-08-13T12:49:15.709Z,1007.33
2017-08-13T12:50:15.698Z,1007.29
2017-08-13T12:51:15.695Z,1007.31